createdAt,value
2018-01-29T00:00:03.817Z,92.80
2018-01-29T00:02:32.233Z,92.80
2018-01-29T00:05:00.581Z,92.80
2018-01-29T00:07:28.849Z,92.90
2018-01-29T00:09:58.024Z,93.00
2018-01-29T00:12:26.320Z,93.00
2018-01-29T00:14:54.634Z,92.80
2018-01-29T00:17:22.920Z,92.90
2018-01-29T00:19:51.214Z,92.90
2018-01-29T00:22:19.528Z,93.00
2018-01-29T00:24:48.624Z,93.00
2018-01-29T00:27:17.989Z,93.10
2018-01-29T00:29:46.245Z,93.00
2018-01-29T00:32:14.525Z,93.00
2018-01-29T00:34:42.896Z,92.90
2018-01-29T00:37:11.187Z,92.90
2018-01-29T00:39:39.504Z,93.10
2018-01-29T00:42:08.575Z,93.10
2018-01-29T00:44:36.848Z,93.10
2018-01-29T00:47:05.053Z,93.20
2018-01-29T00:49:34.169Z,93.30
2018-01-29T00:52:02.401Z,93.20
2018-01-29T00:54:30.808Z,93.10
2018-01-29T00:56:59.835Z,93.10
2018-01-29T00:59:28.064Z,93.10
2018-01-29T01:01:57.068Z,93.20
2018-01-29T01:04:26.095Z,93.20
2018-01-29T01:06:54.384Z,93.20
2018-01-29T01:09:22.661Z,93.10
2018-01-29T01:11:50.962Z,93.10
2018-01-29T01:14:19.342Z,93.20
2018-01-29T01:16:47.602Z,93.20
2018-01-29T01:19:15.833Z,93.10
2018-01-29T01:21:44.105Z,93.10
2018-01-29T01:24:13.098Z,93.10
2018-01-29T01:26:42.523Z,93.00
2018-01-29T01:29:11.521Z,93.10
2018-01-29T01:31:39.756Z,93.00
2018-01-29T01:34:08.136Z,93.00
2018-01-29T01:36:36.387Z,92.80
2018-01-29T01:39:04.640Z,92.80
2018-01-29T01:41:33.032Z,93.00
2018-01-29T01:44:01.261Z,92.70
2018-01-29T01:46:29.759Z,92.80
2018-01-29T01:48:58.008Z,92.60
2018-01-29T01:51:27.013Z,92.50
2018-01-29T01:53:55.241Z,92.50
2018-01-29T01:56:23.552Z,92.60
2018-01-29T01:58:52.556Z,92.80
2018-01-29T02:01:20.851Z,92.80
2018-01-29T02:03:49.898Z,93.00
2018-01-29T02:06:18.136Z,93.00
2018-01-29T02:08:46.468Z,93.00
2018-01-29T02:11:15.555Z,92.60
2018-01-29T02:13:44.347Z,92.60
2018-01-29T02:16:12.618Z,92.90
2018-01-29T02:18:41.072Z,92.80
2018-01-29T02:21:09.509Z,92.80
2018-01-29T02:23:37.862Z,92.90
2018-01-29T02:26:06.173Z,92.50
2018-01-29T02:28:35.906Z,92.40
2018-01-29T02:31:04.432Z,92.30
2018-01-29T02:33:33.596Z,92.60
2018-01-29T02:36:02.701Z,92.80
2018-01-29T02:38:31.031Z,92.80
2018-01-29T02:41:00.604Z,92.70
2018-01-29T02:43:28.956Z,92.60
2018-01-29T02:45:57.237Z,92.70
2018-01-29T02:48:25.505Z,92.70
2018-01-29T02:50:53.773Z,92.80
2018-01-29T02:53:22.029Z,92.80
2018-01-29T02:55:51.033Z,92.80
2018-01-29T02:58:19.315Z,92.80
2018-01-29T03:00:47.584Z,93.00
2018-01-29T03:03:15.908Z,93.10
2018-01-29T03:05:44.304Z,93.20
2018-01-29T03:08:13.536Z,92.90
2018-01-29T03:10:42.121Z,92.90
2018-01-29T03:13:10.464Z,93.20
2018-01-29T03:15:39.557Z,93.20
2018-01-29T03:18:09.045Z,93.10
2018-01-29T03:20:37.435Z,93.10
2018-01-29T03:23:05.703Z,93.10
2018-01-29T03:25:34.216Z,93.30
2018-01-29T03:28:03.278Z,93.10
2018-01-29T03:30:31.552Z,93.00
2018-01-29T03:32:59.788Z,93.00
2018-01-29T03:35:28.055Z,92.50
2018-01-29T03:37:56.283Z,92.50
2018-01-29T03:40:24.825Z,92.30
2018-01-29T03:42:53.040Z,92.20
2018-01-29T03:45:21.272Z,92.30
2018-01-29T03:47:49.536Z,92.60
2018-01-29T03:50:17.812Z,92.40
2018-01-29T03:52:46.192Z,92.30
2018-01-29T03:55:14.534Z,92.30
2018-01-29T03:57:42.745Z,92.50
2018-01-29T04:00:11.069Z,92.30
2018-01-29T04:02:39.313Z,92.30
2018-01-29T04:05:07.557Z,92.20
2018-01-29T04:07:36.080Z,92.40
2018-01-29T04:10:04.352Z,92.40
2018-01-29T04:12:32.628Z,92.70
2018-01-29T04:15:01.047Z,92.60
2018-01-29T04:17:29.272Z,92.70
2018-01-29T04:19:57.520Z,92.70
2018-01-29T04:22:26.647Z,92.70
2018-01-29T04:24:54.912Z,92.70
2018-01-29T04:27:23.177Z,92.60
2018-01-29T04:29:51.628Z,92.80
2018-01-29T04:32:21.230Z,92.60
2018-01-29T04:34:49.487Z,92.50
2018-01-29T04:37:17.721Z,92.50
2018-01-29T04:39:46.748Z,92.80
2018-01-29T04:42:14.995Z,92.80
2018-01-29T04:44:43.249Z,92.80
2018-01-29T04:47:11.552Z,92.90
2018-01-29T04:49:39.800Z,92.90
2018-01-29T04:52:08.092Z,92.80
2018-01-29T04:54:36.420Z,92.90
2018-01-29T04:57:04.661Z,92.70
2018-01-29T04:59:32.936Z,92.80
2018-01-29T05:02:01.308Z,92.80
2018-01-29T05:04:30.380Z,92.70
2018-01-29T05:06:58.609Z,92.70
2018-01-29T05:09:26.916Z,92.70
2018-01-29T05:11:55.914Z,92.40
2018-01-29T05:14:24.138Z,92.40
2018-01-29T05:16:52.456Z,92.50
2018-01-29T05:19:21.117Z,92.60
2018-01-29T05:21:49.384Z,92.80
2018-01-29T05:24:17.728Z,92.80
2018-01-29T05:26:46.732Z,92.90
2018-01-29T05:29:14.986Z,92.90
2018-01-29T05:31:44.248Z,92.60
2018-01-29T05:34:13.255Z,92.90
2018-01-29T05:37:02.394Z,92.80
2018-01-29T05:39:30.675Z,92.80
2018-01-29T05:41:59.030Z,92.80
2018-01-29T05:44:27.420Z,92.70
2018-01-29T05:46:56.442Z,92.50
2018-01-29T05:49:24.739Z,92.50
2018-01-29T05:51:52.987Z,92.60
2018-01-29T05:54:21.365Z,92.70
2018-01-29T05:56:49.608Z,92.40
2018-01-29T05:59:17.921Z,92.40
2018-01-29T06:01:46.160Z,92.50
2018-01-29T06:04:14.396Z,92.70
2018-01-29T06:06:43.461Z,92.70
2018-01-29T06:09:11.704Z,92.70
2018-01-29T06:11:40.311Z,92.80
2018-01-29T06:14:08.564Z,92.50
2018-01-29T06:16:36.797Z,92.50
2018-01-29T06:19:05.077Z,92.50
2018-01-29T06:21:33.372Z,92.50
2018-01-29T06:24:02.396Z,92.40
2018-01-29T06:26:30.790Z,92.40
2018-01-29T06:28:59.115Z,92.60
2018-01-29T06:31:27.578Z,92.30
2018-01-29T06:33:56.729Z,92.10
2018-01-29T06:36:25.507Z,92.30
2018-01-29T06:38:54.082Z,92.40
2018-01-29T06:41:23.220Z,92.20
2018-01-29T06:43:51.655Z,92.20
2018-01-29T06:46:20.054Z,92.20
2018-01-29T06:48:48.288Z,92.40
2018-01-29T06:51:16.663Z,92.20
2018-01-29T06:53:44.872Z,92.30
2018-01-29T06:56:13.208Z,92.30
2018-01-29T06:58:41.552Z,92.30
2018-01-29T07:01:09.877Z,92.30
2018-01-29T07:03:38.136Z,92.20
2018-01-29T07:06:06.776Z,92.10
2018-01-29T07:08:35.039Z,91.90
2018-01-29T07:11:04.109Z,91.90
2018-01-29T07:13:32.501Z,91.90
2018-01-29T07:16:01.529Z,91.90
2018-01-29T07:18:29.805Z,91.80
2018-01-29T07:20:58.838Z,91.70
2018-01-29T07:23:27.121Z,91.70
2018-01-29T07:25:55.560Z,91.70
2018-01-29T07:28:23.879Z,91.60
2018-01-29T07:30:52.196Z,91.40
2018-01-29T07:33:20.423Z,91.40
2018-01-29T07:35:48.681Z,91.20
2018-01-29T07:38:16.969Z,91.60
2018-01-29T07:40:45.208Z,91.60
2018-01-29T07:43:14.251Z,91.60
2018-01-29T07:45:42.536Z,91.60
2018-01-29T07:48:10.856Z,91.50
2018-01-29T07:50:40.024Z,91.30
2018-01-29T07:53:08.275Z,91.30
2018-01-29T07:55:36.509Z,91.20
2018-01-29T07:58:05.532Z,91.20
2018-01-29T08:00:33.862Z,91.20
2018-01-29T08:03:02.097Z,91.10
2018-01-29T08:05:30.463Z,91.20
2018-01-29T08:07:58.744Z,91.20
2018-01-29T08:10:26.983Z,91.40
2018-01-29T08:12:56.081Z,91.20
2018-01-29T08:15:25.138Z,91.10
2018-01-29T08:17:53.382Z,91.10
2018-01-29T08:20:21.624Z,91.20
2018-01-29T08:22:50.624Z,91.30
2018-01-29T08:25:18.927Z,91.30
2018-01-29T08:27:47.172Z,91.20
2018-01-29T08:30:16.197Z,91.30
2018-01-29T08:32:44.500Z,91.30
2018-01-29T08:35:12.836Z,91.70
2018-01-29T08:37:41.279Z,91.50
2018-01-29T08:40:09.577Z,91.50
2018-01-29T08:42:38.612Z,91.20
2018-01-29T08:45:06.856Z,91.20
2018-01-29T08:47:35.192Z,91.40
2018-01-29T08:50:03.515Z,91.30
2018-01-29T08:52:32.531Z,91.20
2018-01-29T08:55:00.800Z,91.20
2018-01-29T08:57:29.177Z,91.20
2018-01-29T08:59:57.428Z,91.30
2018-01-29T09:02:26.421Z,91.50
2018-01-29T09:04:55.486Z,91.30
2018-01-29T09:07:23.742Z,91.30
2018-01-29T09:09:52.007Z,91.60
2018-01-29T09:12:20.369Z,91.20
2018-01-29T09:14:48.616Z,91.30
2018-01-29T09:17:17.606Z,91.10
2018-01-29T09:19:46.688Z,91.00
2018-01-29T09:22:14.930Z,91.00
2018-01-29T09:24:43.353Z,91.30
2018-01-29T09:27:11.620Z,91.20
2018-01-29T09:29:39.960Z,91.40
2018-01-29T09:32:08.201Z,91.20
2018-01-29T09:34:36.533Z,91.40
2018-01-29T09:37:04.840Z,91.40
2018-01-29T09:39:33.941Z,91.60
2018-01-29T09:42:04.428Z,91.50
2018-01-29T09:44:32.693Z,91.50
2018-01-29T09:47:00.929Z,91.30
2018-01-29T09:49:30.480Z,91.50
2018-01-29T09:51:58.753Z,91.50
2018-01-29T09:54:27.080Z,91.30
2018-01-29T09:56:56.184Z,91.10
2018-01-29T09:59:25.341Z,91.10
2018-01-29T10:01:53.726Z,91.10
2018-01-29T10:04:22.233Z,91.10
2018-01-29T10:06:51.244Z,91.00
2018-01-29T10:09:19.483Z,91.00
2018-01-29T10:11:47.756Z,91.00
2018-01-29T10:14:15.985Z,90.90
2018-01-29T10:16:44.329Z,91.00
2018-01-29T10:19:13.393Z,90.50
2018-01-29T10:21:41.634Z,90.50
2018-01-29T10:24:09.856Z,90.60
2018-01-29T10:26:39.001Z,90.90
2018-01-29T10:29:07.256Z,90.90
2018-01-29T10:31:36.373Z,90.60
2018-01-29T10:34:05.381Z,90.50
2018-01-29T10:36:33.604Z,90.50
2018-01-29T10:39:01.943Z,90.80
2018-01-29T10:41:30.290Z,90.50
2018-01-29T10:43:59.394Z,90.60
2018-01-29T10:46:29.338Z,90.70
2018-01-29T10:48:58.126Z,90.70
2018-01-29T10:51:26.640Z,90.70
2018-01-29T10:53:54.983Z,90.80
2018-01-29T10:56:23.289Z,90.60
2018-01-29T10:58:51.561Z,90.20
2018-01-29T11:01:23.416Z,90.30
2018-01-29T11:03:51.975Z,90.40
2018-01-29T11:06:39.322Z,89.70
2018-01-29T11:09:07.700Z,90.30
2018-01-29T11:11:36.015Z,90.00
2018-01-29T11:14:04.304Z,90.00
2018-01-29T11:16:33.336Z,90.10
2018-01-29T11:19:01.600Z,90.00
2018-01-29T11:21:29.920Z,90.00
2018-01-29T11:23:58.272Z,90.00
2018-01-29T11:26:26.524Z,89.70
2018-01-29T11:28:54.854Z,89.50
2018-01-29T11:31:23.889Z,89.70
2018-01-29T11:33:52.924Z,89.60
2018-01-29T11:36:21.179Z,90.00
2018-01-29T11:38:49.535Z,89.30
2018-01-29T11:41:18.545Z,90.00
2018-01-29T11:43:46.787Z,90.00
2018-01-29T11:46:15.140Z,89.60
2018-01-29T11:48:43.434Z,89.50
2018-01-29T11:51:11.734Z,89.20
2018-01-29T11:53:40.033Z,89.90
2018-01-29T11:56:08.336Z,90.10
2018-01-29T11:58:36.603Z,89.20
2018-01-29T12:01:04.864Z,89.80
2018-01-29T12:03:33.091Z,89.30
2018-01-29T12:06:01.436Z,89.70
2018-01-29T12:08:29.778Z,89.30
2018-01-29T12:10:58.001Z,89.40
2018-01-29T12:13:26.258Z,89.20
2018-01-29T12:15:54.612Z,89.10
2018-01-29T12:18:23.633Z,88.90
2018-01-29T12:20:51.910Z,88.90
2018-01-29T12:23:20.202Z,89.50
2018-01-29T12:25:48.436Z,89.30
2018-01-29T12:28:16.705Z,88.70
2018-01-29T12:30:45.419Z,88.70
2018-01-29T12:33:13.683Z,88.70
2018-01-29T12:35:41.918Z,88.80
2018-01-29T12:38:10.268Z,88.60
2018-01-29T12:40:38.544Z,88.30
2018-01-29T12:43:06.876Z,88.80
2018-01-29T12:45:35.991Z,88.40
2018-01-29T12:48:05.651Z,88.40
2018-01-29T12:50:34.080Z,88.80
2018-01-29T12:53:02.410Z,88.90
2018-01-29T12:55:30.685Z,88.30
2018-01-29T12:57:59.616Z,87.70
2018-01-29T13:00:28.440Z,88.20
2018-01-29T13:02:56.919Z,87.50
2018-01-29T13:05:25.359Z,87.80
2018-01-29T13:07:53.621Z,87.50
2018-01-29T13:10:22.138Z,87.90
2018-01-29T13:15:18.224Z,87.50
2018-01-29T13:17:47.315Z,88.00
2018-01-29T13:20:15.651Z,87.70
2018-01-29T13:22:43.976Z,87.70
2018-01-29T13:25:12.288Z,87.60
2018-01-29T13:27:41.323Z,87.40
2018-01-29T13:30:09.721Z,87.40
2018-01-29T13:32:37.999Z,87.60
2018-01-29T13:35:06.232Z,87.10
2018-01-29T13:37:34.704Z,87.40
2018-01-29T13:40:03.887Z,87.50
2018-01-29T13:42:32.164Z,87.50
2018-01-29T13:45:00.524Z,87.50
2018-01-29T13:47:28.841Z,87.70
2018-01-29T13:49:57.905Z,87.50
2018-01-29T13:52:26.942Z,87.40
2018-01-29T13:54:55.279Z,87.40
2018-01-29T13:57:23.562Z,87.30
2018-01-29T13:59:51.849Z,87.00
2018-01-29T14:02:20.082Z,87.10
2018-01-29T14:04:48.454Z,87.50
2018-01-29T14:07:16.765Z,86.70
2018-01-29T14:09:45.166Z,86.60
2018-01-29T14:12:13.452Z,87.30
2018-01-29T14:14:41.725Z,86.60
2018-01-29T14:17:10.721Z,86.30
2018-01-29T14:19:39.742Z,86.80
2018-01-29T14:22:08.057Z,86.80
2018-01-29T14:24:36.356Z,87.10
2018-01-29T14:27:04.745Z,86.90
2018-01-29T14:29:33.884Z,86.70
2018-01-29T14:32:02.148Z,86.60
2018-01-29T14:34:31.139Z,86.10
2018-01-29T14:36:59.420Z,86.00
2018-01-29T14:39:27.765Z,85.90
2018-01-29T14:41:55.972Z,86.80
2018-01-29T14:44:24.275Z,86.50
2018-01-29T14:46:52.493Z,86.50
2018-01-29T14:49:21.480Z,86.10
2018-01-29T14:51:50.673Z,86.50
2018-01-29T14:54:18.904Z,86.60
2018-01-29T14:56:47.269Z,86.00
2018-01-29T14:59:15.534Z,85.80
2018-01-29T15:01:43.815Z,85.60
2018-01-29T15:04:12.041Z,86.00
2018-01-29T15:06:40.326Z,86.50
2018-01-29T15:09:08.583Z,85.90
2018-01-29T15:11:37.041Z,85.50
2018-01-29T15:14:05.320Z,86.00
2018-01-29T15:16:33.560Z,86.40
2018-01-29T15:19:02.599Z,86.50
2018-01-29T15:21:30.844Z,86.50
2018-01-29T15:23:59.356Z,86.50
2018-01-29T15:26:27.594Z,86.70
2018-01-29T15:28:56.680Z,86.90
2018-01-29T15:31:25.692Z,87.00
2018-01-29T15:33:53.925Z,87.40
2018-01-29T15:36:22.241Z,86.50
2018-01-29T15:38:50.481Z,87.10
2018-01-29T15:41:18.720Z,87.00
2018-01-29T15:43:47.104Z,86.40
2018-01-29T15:46:15.347Z,86.40
2018-01-29T15:48:44.378Z,86.00
2018-01-29T15:51:12.661Z,86.00
2018-01-29T15:53:40.956Z,86.00
2018-01-29T15:56:09.185Z,86.30
2018-01-29T15:58:37.686Z,85.60
2018-01-29T16:01:05.952Z,85.40
2018-01-29T16:03:34.210Z,85.90
2018-01-29T16:06:02.614Z,86.10
2018-01-29T16:08:30.880Z,85.70
2018-01-29T16:10:59.902Z,85.30
2018-01-29T16:13:28.289Z,85.20
2018-01-29T16:15:56.588Z,85.70
2018-01-29T16:18:25.573Z,85.20
2018-01-29T16:20:54.787Z,85.40
2018-01-29T16:23:23.792Z,85.60
2018-01-29T16:25:52.100Z,85.50
2018-01-29T16:28:20.416Z,85.80
2018-01-29T16:30:48.677Z,84.90
2018-01-29T16:33:16.909Z,85.40
2018-01-29T16:35:45.196Z,85.00
2018-01-29T16:38:13.454Z,84.70
2018-01-29T16:40:41.774Z,85.10
2018-01-29T16:43:11.317Z,84.80
2018-01-29T16:45:39.529Z,84.80
2018-01-29T16:48:07.795Z,84.90
2018-01-29T16:50:36.037Z,85.20
2018-01-29T16:53:04.284Z,85.30
2018-01-29T16:55:32.598Z,84.90
2018-01-29T16:58:00.940Z,85.10
2018-01-29T17:00:29.255Z,84.60
2018-01-29T17:02:58.407Z,84.20
2018-01-29T17:05:26.663Z,84.20
2018-01-29T17:07:54.961Z,84.90
2018-01-29T17:10:23.213Z,84.60
2018-01-29T17:12:51.476Z,84.90
2018-01-29T17:15:19.755Z,85.50
2018-01-29T17:17:48.936Z,84.80
2018-01-29T17:20:17.949Z,84.40
2018-01-29T17:22:46.172Z,84.40
2018-01-29T17:25:14.494Z,84.60
2018-01-29T17:27:44.162Z,84.90
2018-01-29T17:30:12.415Z,84.80
2018-01-29T17:32:40.655Z,85.40
2018-01-29T17:35:08.920Z,84.60
2018-01-29T17:37:37.927Z,85.00
2018-01-29T17:40:06.248Z,85.00
2018-01-29T17:42:34.524Z,85.20
2018-01-29T17:45:02.764Z,84.80
2018-01-29T17:47:31.059Z,84.60
2018-01-29T17:49:59.391Z,85.00
2018-01-29T17:52:27.670Z,85.30
2018-01-29T17:54:56.735Z,85.80
2018-01-29T17:57:25.156Z,85.80
2018-01-29T17:59:53.417Z,85.20
2018-01-29T18:02:22.428Z,85.40
2018-01-29T18:04:50.712Z,85.40
2018-01-29T18:07:19.012Z,85.90
2018-01-29T18:09:47.268Z,86.00
2018-01-29T18:12:15.596Z,86.30
2018-01-29T18:14:44.588Z,85.70
2018-01-29T18:17:12.833Z,85.70
2018-01-29T18:19:41.218Z,84.60
2018-01-29T18:22:09.454Z,84.30
2018-01-29T18:24:38.497Z,84.30
2018-01-29T18:27:06.761Z,84.30
2018-01-29T18:29:34.996Z,84.20
2018-01-29T18:32:03.260Z,84.50
2018-01-29T18:34:32.450Z,83.70
2018-01-29T18:37:00.786Z,83.60
2018-01-29T18:39:29.032Z,84.10
2018-01-29T18:41:57.297Z,84.20
2018-01-29T18:44:26.296Z,83.90
2018-01-29T18:46:55.369Z,84.90
2018-01-29T18:49:23.648Z,84.70
2018-01-29T18:51:51.892Z,84.20
2018-01-29T18:54:20.128Z,84.10
2018-01-29T18:56:48.695Z,83.80
2018-01-29T18:59:17.793Z,83.80
2018-01-29T19:01:46.785Z,83.80
2018-01-29T19:04:15.864Z,83.50
2018-01-29T19:06:44.133Z,83.40
2018-01-29T19:09:12.374Z,83.80
2018-01-29T19:11:40.868Z,84.00
2018-01-29T19:14:09.138Z,84.30
2018-01-29T19:16:37.361Z,84.10
2018-01-29T19:19:06.478Z,84.50
2018-01-29T19:21:34.706Z,84.70
2018-01-29T19:24:03.129Z,85.00
2018-01-29T19:26:32.162Z,85.20
2018-01-29T19:29:00.394Z,85.10
2018-01-29T19:31:28.655Z,84.60
2018-01-29T19:33:56.999Z,85.50
2018-01-29T19:36:25.284Z,85.00
2018-01-29T19:38:53.556Z,85.20
2018-01-29T19:41:21.836Z,84.80
2018-01-29T19:43:50.125Z,85.90
2018-01-29T19:46:18.372Z,84.50
2018-01-29T19:48:46.665Z,84.60
2018-01-29T19:51:14.901Z,85.00
2018-01-29T19:53:43.999Z,84.40
2018-01-29T19:56:13.263Z,83.90
2018-01-29T19:58:42.413Z,83.90
2018-01-29T20:01:10.646Z,83.90
2018-01-29T20:03:39.772Z,84.00
2018-01-29T20:06:08.057Z,83.90
2018-01-29T20:08:36.321Z,83.30
2018-01-29T20:11:05.117Z,83.40
2018-01-29T20:13:34.067Z,84.00
2018-01-29T20:16:03.254Z,82.70
2018-01-29T20:18:31.617Z,82.70
2018-01-29T20:20:59.867Z,82.50
2018-01-29T20:23:28.100Z,83.00
2018-01-29T20:25:57.269Z,82.20
2018-01-29T20:28:26.111Z,82.20
2018-01-29T20:30:56.164Z,82.40
2018-01-29T20:33:25.636Z,81.60
2018-01-29T20:35:56.206Z,81.60
2018-01-29T20:38:25.459Z,81.90
2018-01-29T20:40:55.175Z,81.10
2018-01-29T20:43:25.182Z,81.10
2018-01-29T20:45:54.093Z,81.10
2018-01-29T20:48:22.502Z,81.60
2018-01-29T20:50:51.514Z,81.60
2018-01-29T20:53:19.945Z,81.60
2018-01-29T20:55:48.994Z,82.00
2018-01-29T20:58:17.224Z,82.00
2018-01-29T21:00:46.535Z,83.60
2018-01-29T21:03:16.837Z,84.70
2018-01-29T21:05:45.998Z,86.60
2018-01-29T21:08:14.973Z,86.50
2018-01-29T21:10:45.707Z,87.30
2018-01-29T21:13:15.210Z,89.70
2018-01-29T21:15:44.550Z,90.10
2018-01-29T21:18:13.498Z,90.10
2018-01-29T21:20:41.688Z,90.40
2018-01-29T21:23:10.533Z,90.70
2018-01-29T21:25:39.890Z,90.90
2018-01-29T21:28:10.553Z,91.10
2018-01-29T21:30:39.116Z,91.40
2018-01-29T21:33:08.010Z,91.60
2018-01-29T21:35:36.428Z,91.60
2018-01-29T21:38:05.043Z,91.90
2018-01-29T21:40:33.340Z,91.70
2018-01-29T21:43:02.390Z,92.00
2018-01-29T21:45:31.400Z,92.10
2018-01-29T21:47:59.682Z,92.10
2018-01-29T21:50:28.050Z,91.90
2018-01-29T21:52:57.216Z,92.10
2018-01-29T21:55:26.909Z,92.10
2018-01-29T21:57:55.347Z,92.10
2018-01-29T22:00:24.061Z,91.90
2018-01-29T22:02:53.531Z,92.00
2018-01-29T22:05:23.200Z,92.00
2018-01-29T22:07:52.008Z,92.00
2018-01-29T22:10:21.146Z,91.50
2018-01-29T22:12:49.410Z,91.50
2018-01-29T22:15:17.679Z,91.60
2018-01-29T22:17:45.998Z,91.40
2018-01-29T22:20:14.272Z,91.20
2018-01-29T22:22:42.541Z,91.20
2018-01-29T22:25:11.114Z,91.30
2018-01-29T22:27:39.493Z,91.10
2018-01-29T22:30:07.745Z,91.00
2018-01-29T22:32:36.067Z,91.20
2018-01-29T22:35:04.448Z,90.90
2018-01-29T22:37:32.690Z,91.00
2018-01-29T22:40:02.240Z,91.10
2018-01-29T22:42:30.501Z,90.80
2018-01-29T22:44:58.785Z,90.90
2018-01-29T22:47:27.850Z,90.80
2018-01-29T22:49:56.373Z,90.80
2018-01-29T22:52:24.618Z,91.10
2018-01-29T22:54:52.895Z,91.20
2018-01-29T22:57:21.148Z,91.20
2018-01-29T22:59:49.384Z,91.20
2018-01-29T23:02:19.008Z,91.40
2018-01-29T23:04:48.028Z,91.70
2018-01-29T23:07:16.320Z,91.50
2018-01-29T23:09:44.576Z,91.20
2018-01-29T23:12:12.914Z,91.30
2018-01-29T23:14:41.190Z,91.20
2018-01-29T23:17:09.434Z,90.90
2018-01-29T23:19:37.680Z,91.10
2018-01-29T23:22:05.900Z,90.90
2018-01-29T23:24:34.184Z,90.80
2018-01-29T23:27:02.436Z,90.90
2018-01-29T23:29:30.688Z,91.00
2018-01-29T23:31:58.953Z,90.90
2018-01-29T23:34:27.947Z,90.90
2018-01-29T23:36:56.940Z,90.90
2018-01-29T23:39:25.216Z,90.80
2018-01-29T23:41:53.494Z,90.80
2018-01-29T23:44:21.869Z,91.00
2018-01-29T23:46:50.179Z,91.00
2018-01-29T23:49:18.420Z,91.10
2018-01-29T23:51:47.411Z,91.00
2018-01-29T23:54:17.252Z,91.00
2018-01-29T23:56:45.507Z,90.90
2018-01-29T23:59:13.785Z,90.90
